Terminal Aerodrome Forecast
Issued by NWS

Home | Current Version | Previous Version | Text Only | Print | Product List | Glossary On
Versions: 1 2 3 4 5 6 7 8 9 10 11 12 13 14 15 16 17
000
FTUS44 KBMX 020520
TAFTOI
TAF
KTOI 020520Z 0206/0306 06005KT P6SM BKN080
      TEMPO 0211/0212 4SM BR
     FM021500 05006KT P6SM FEW050
     FM021900 34005KT P6SM FEW050
     FM030100 00000KT P6SM SKC=

USA.gov is the U.S. government's official web portal to all federal, state and local government web resources and services.